Time;durP1;ratioP1;P1;durP2;ratioP2;P2;SDS_P1;SDS_P2;PMS_P1;PMS_P2;Temp;Humidity;BMP_temperature;BMP_pressure;BME280_temperature;BME280_humidity;BME280_pressure;Samples;Min_cycle;Max_cycle;Signal;HPM_P1;HPM_P2
2022/04/12 00:00:36;;;;;;;;;;;;;;;;;;5093363;28;19990;-77
2022/04/12 00:03:02;;;;;;;;;;;;;;;;;;5093818;28;19916;-77
2022/04/12 00:05:27;;;;;;;;;;;;;;;;;;5093462;28;20005;-77
2022/04/12 00:07:53;;;;;;;;;;;;;;;;;;5094025;28;19916;-76
2022/04/12 00:10:19;;;;;;;;;;;;;;;;;;5094206;28;20005;-77
2022/04/12 00:12:44;;;;;;;;;;;;;;;;;;5097751;28;20370;-77
2022/04/12 00:15:10;;;;;;;;;;;;;;;;;;5097180;28;20373;-77
2022/04/12 00:20:20;;;;;;;;;;;;;;;;;;5097936;28;19968;-77
2022/04/12 00:22:45;;;;;;;;;;;;;;;;;;5097517;28;20003;-77
2022/04/12 00:25:11;;;;;;;;;;;;;;;;;;5097672;28;19920;-77
2022/04/12 00:27:37;;;;;;;;;;;;;;;;;;5098058;28;19923;-77
2022/04/12 00:30:04;;;;;;;;;;;;;;;;;;5097934;28;19923;-77
2022/04/12 00:32:29;;;;;;;;;;;;;;;;;;5096636;28;19930;-77
2022/04/12 00:34:54;;;;;;;;;;;;;;;;;;5097859;28;20292;-77
2022/04/12 00:37:20;;;;;;;;;;;;;;;;;;5097974;28;19942;-77
2022/04/12 00:39:45;;;;;;;;;;;;;;;;;;5098316;28;19923;-77
2022/04/12 00:42:10;;;;;;;;;;;;;;;;;;5098304;28;19960;-77
2022/04/12 00:44:36;;;;;;;;;;;;;;;;;;5089945;28;19916;-77
2022/04/12 00:47:02;;;;;;;;;;;;;;;;;;5082033;28;19916;-77
2022/04/12 00:49:28;;;;;;;;;;;;;;;;;;5097596;28;19919;-78
2022/04/12 00:51:54;;;;;;;;;;;;;;;;;;5098134;28;19928;-77
2022/04/12 00:54:20;;;;;;;;;;;;;;;;;;5097908;28;19962;-77
2022/04/12 00:56:46;;;;;;;;;;;;;;;;;;5098096;28;19920;-77
2022/04/12 00:59:11;;;;;;;;;;;;;;;;;;5080698;28;19923;-77
2022/04/12 01:01:37;;;;;;;;;;;;;;;;;;5098470;28;20374;-77
2022/04/12 01:04:02;;;;;;;;;;;;;;;;;;5098126;28;19920;-78
2022/04/12 01:06:27;;;;;;;;;;;;;;;;;;5098365;28;19915;-78
2022/04/12 01:08:53;;;;;;;;;;;;;;;;;;5098718;28;19942;-77
2022/04/12 01:11:20;;;;;;;;;;;;;;;;;;5098366;28;19973;-77
2022/04/12 01:13:46;;;;;;;;;;;;;;;;;;5098303;28;19916;-77
2022/04/12 01:16:11;;;;;;;;;;;;;;;;;;5097991;28;19916;-77
2022/04/12 01:18:37;;;;;;;;;;;;;;;;;;5085167;28;19920;-79
2022/04/12 01:21:03;;;;;;;;;;;;;;;;;;5078265;28;19917;-78
2022/04/12 01:23:31;;;;;;;;;;;;;;;;;;5076156;28;19969;-78
2022/04/12 01:25:57;;;;;;;;;;;;;;;;;;5076475;28;19917;-78
2022/04/12 01:28:23;;;;;;;;;;;;;;;;;;5075365;28;20294;-78
2022/04/12 01:30:50;;;;;;;;;;;;;;;;;;5076588;28;19927;-79
2022/04/12 01:33:16;;;;;;;;;;;;;;;;;;5076444;28;19921;-77
2022/04/12 01:35:41;;;;;;;;;;;;;;;;;;5074418;28;19916;-78
2022/04/12 01:38:06;;;;;;;;;;;;;;;;;;5075900;28;19927;-77
2022/04/12 01:40:31;;;;;;;;;;;;;;;;;;5076374;28;19916;-77
2022/04/12 01:42:57;;;;;;;;;;;;;;;;;;5076426;28;19955;-78
2022/04/12 01:45:24;;;;;;;;;;;;;;;;;;5099500;28;20425;-79
2022/04/12 01:47:49;;;;;;;;;;;;;;;;;;5117170;28;19916;-77
2022/04/12 01:50:15;;;;;;;;;;;;;;;;;;5116969;28;19916;-77
2022/04/12 01:52:40;;;;;;;;;;;;;;;;;;5116822;28;20293;-77
2022/04/12 01:55:06;;;;;;;;;;;;;;;;;;5116485;28;19919;-78
2022/04/12 01:57:31;;;;;;;;;;;;;;;;;;5116599;28;19916;-78
2022/04/12 01:59:57;;;;;;;;;;;;;;;;;;5116633;28;19923;-77
2022/04/12 02:02:22;;;;;;;;;;;;;;;;;;5116681;28;19920;-77
2022/04/12 02:04:47;;;;;;;;;;;;;;;;;;5116460;28;20079;-79
2022/04/12 02:07:13;;;;;;;;;;;;;;;;;;5116369;28;19915;-77
2022/04/12 02:09:38;;;;;;;;;;;;;;;;;;5115631;28;20382;-77
2022/04/12 02:12:04;;;;;;;;;;;;;;;;;;5115574;28;19959;-78
2022/04/12 02:14:29;;;;;;;;;;;;;;;;;;5109463;28;19923;-77
2022/04/12 02:16:54;;;;;;;;;;;;;;;;;;5075374;28;19934;-78
2022/04/12 02:19:20;;;;;;;;;;;;;;;;;;5075984;28;20302;-78
2022/04/12 02:21:45;;;;;;;;;;;;;;;;;;5075571;28;19991;-77
2022/04/12 02:24:10;;;;;;;;;;;;;;;;;;5075348;28;19919;-77
2022/04/12 02:26:36;;;;;;;;;;;;;;;;;;5075586;28;19923;-78
2022/04/12 02:29:01;;;;;;;;;;;;;;;;;;5075811;28;19912;-77
2022/04/12 02:31:26;;;;;;;;;;;;;;;;;;5075613;28;19943;-77
2022/04/12 02:33:51;;;;;;;;;;;;;;;;;;5074681;28;19917;-77
2022/04/12 02:36:17;;;;;;;;;;;;;;;;;;5074407;28;19916;-77
2022/04/12 02:38:42;;;;;;;;;;;;;;;;;;5075634;28;19924;-77
2022/04/12 02:41:07;;;;;;;;;;;;;;;;;;5075168;28;20015;-77
2022/04/12 02:43:33;;;;;;;;;;;;;;;;;;5075232;28;19937;-77
2022/04/12 02:45:58;;;;;;;;;;;;;;;;;;5112319;28;19920;-78
2022/04/12 02:48:24;;;;;;;;;;;;;;;;;;5116155;28;19915;-78
2022/04/12 02:50:49;;;;;;;;;;;;;;;;;;5116634;28;20363;-77
2022/04/12 02:53:14;;;;;;;;;;;;;;;;;;5116055;28;19919;-77
2022/04/12 02:55:40;;;;;;;;;;;;;;;;;;5116115;28;20361;-77
2022/04/12 02:58:05;;;;;;;;;;;;;;;;;;5116534;28;19986;-77
2022/04/12 03:00:30;;;;;;;;;;;;;;;;;;5116367;28;20010;-78
2022/04/12 03:02:56;;;;;;;;;;;;;;;;;;5114880;28;19966;-77
2022/04/12 03:05:21;;;;;;;;;;;;;;;;;;5115885;28;19985;-77
2022/04/12 03:07:46;;;;;;;;;;;;;;;;;;5116681;28;19916;-77
2022/04/12 03:10:12;;;;;;;;;;;;;;;;;;5115128;28;19970;-78
2022/04/12 03:12:37;;;;;;;;;;;;;;;;;;5082601;28;19963;-77
2022/04/12 03:15:02;;;;;;;;;;;;;;;;;;5075381;28;19942;-77
2022/04/12 03:17:28;;;;;;;;;;;;;;;;;;5075792;28;19912;-77
2022/04/12 03:19:53;;;;;;;;;;;;;;;;;;5074534;28;19916;-77
2022/04/12 03:22:19;;;;;;;;;;;;;;;;;;5075607;28;19916;-77
2022/04/12 03:24:45;;;;;;;;;;;;;;;;;;5075803;28;20370;-77
2022/04/12 03:27:10;;;;;;;;;;;;;;;;;;5074681;28;19916;-78
2022/04/12 03:29:36;;;;;;;;;;;;;;;;;;5074183;28;19955;-78
2022/04/12 03:32:01;;;;;;;;;;;;;;;;;;5072620;28;19920;-78
2022/04/12 03:34:27;;;;;;;;;;;;;;;;;;5074295;28;19971;-77
2022/04/12 03:36:52;;;;;;;;;;;;;;;;;;5074304;28;19917;-77
2022/04/12 03:39:17;;;;;;;;;;;;;;;;;;5074518;28;20003;-77
2022/04/12 03:41:46;;;;;;;;;;;;;;;;;;5073388;28;19917;-77
2022/04/12 03:44:12;;;;;;;;;;;;;;;;;;5074361;28;20019;-77
2022/04/12 03:46:38;;;;;;;;;;;;;;;;;;5073971;28;19960;-77
2022/04/12 03:49:03;;;;;;;;;;;;;;;;;;5074454;28;20011;-77
2022/04/12 03:51:28;;;;;;;;;;;;;;;;;;5080806;28;19916;-77
2022/04/12 03:53:54;;;;;;;;;;;;;;;;;;5094878;28;19969;-77
2022/04/12 03:56:19;;;;;;;;;;;;;;;;;;5094618;28;19945;-77
2022/04/12 03:58:44;;;;;;;;;;;;;;;;;;5094548;28;19916;-77
2022/04/12 04:01:10;;;;;;;;;;;;;;;;;;5093345;28;19916;-77
2022/04/12 04:03:35;;;;;;;;;;;;;;;;;;5095030;28;19920;-77
2022/04/12 04:06:01;;;;;;;;;;;;;;;;;;5094411;28;20014;-77
2022/04/12 04:08:27;;;;;;;;;;;;;;;;;;5093601;28;20026;-77
2022/04/12 04:10:52;;;;;;;;;;;;;;;;;;5079039;28;19956;-77
2022/04/12 04:13:20;;;;;;;;;;;;;;;;;;5074280;28;19920;-78
2022/04/12 04:15:46;;;;;;;;;;;;;;;;;;5087663;28;19916;-78
2022/04/12 04:18:14;;;;;;;;;;;;;;;;;;5094301;28;19923;-78
2022/04/12 04:20:40;;;;;;;;;;;;;;;;;;5094746;28;19930;-77
2022/04/12 04:23:05;;;;;;;;;;;;;;;;;;5110217;28;19920;-77
2022/04/12 04:25:31;;;;;;;;;;;;;;;;;;5114879;28;19916;-77
2022/04/12 04:27:56;;;;;;;;;;;;;;;;;;5114749;28;20352;-78
2022/04/12 04:30:22;;;;;;;;;;;;;;;;;;5106643;28;19920;-77
2022/04/12 04:32:47;;;;;;;;;;;;;;;;;;5093393;28;19920;-78
2022/04/12 04:35:13;;;;;;;;;;;;;;;;;;5094195;28;19916;-78
2022/04/12 04:37:43;;;;;;;;;;;;;;;;;;5094781;28;20030;-77
2022/04/12 04:40:09;;;;;;;;;;;;;;;;;;5095821;28;19916;-79
2022/04/12 04:42:34;;;;;;;;;;;;;;;;;;5093973;28;20393;-78
2022/04/12 04:44:59;;;;;;;;;;;;;;;;;;5085580;28;19923;-79
2022/04/12 04:47:24;;;;;;;;;;;;;;;;;;5075816;28;19916;-79
2022/04/12 04:49:50;;;;;;;;;;;;;;;;;;5073980;28;19982;-78
2022/04/12 04:52:16;;;;;;;;;;;;;;;;;;5073163;28;20011;-78
2022/04/12 04:54:41;;;;;;;;;;;;;;;;;;5073379;28;19917;-77
2022/04/12 04:57:06;;;;;;;;;;;;;;;;;;5073152;28;19920;-79
2022/04/12 04:59:32;;;;;;;;;;;;;;;;;;5075283;28;19928;-79
2022/04/12 05:01:57;;;;;;;;;;;;;;;;;;5076872;28;19994;-78
2022/04/12 05:04:23;;;;;;;;;;;;;;;;;;5076906;28;19922;-77
2022/04/12 05:06:48;;;;;;;;;;;;;;;;;;5076944;28;20025;-77
2022/04/12 05:09:13;;;;;;;;;;;;;;;;;;5076956;28;19920;-77
2022/04/12 05:11:38;;;;;;;;;;;;;;;;;;5076585;28;19925;-77
2022/04/12 05:14:04;;;;;;;;;;;;;;;;;;5080711;28;20449;-78
2022/04/12 05:16:29;;;;;;;;;;;;;;;;;;5113482;28;19919;-79
2022/04/12 05:18:54;;;;;;;;;;;;;;;;;;5075153;28;19924;-78
2022/04/12 05:21:20;;;;;;;;;;;;;;;;;;5077646;28;19916;-80
2022/04/12 05:23:45;;;;;;;;;;;;;;;;;;5080538;28;20006;-79
2022/04/12 05:26:10;;;;;;;;;;;;;;;;;;5096032;28;19916;-79
2022/04/12 05:28:36;;;;;;;;;;;;;;;;;;5082658;28;19916;-79
2022/04/12 05:31:01;;;;;;;;;;;;;;;;;;5082102;28;19917;-79
2022/04/12 05:33:27;;;;;;;;;;;;;;;;;;5083805;28;19966;-79
2022/04/12 05:35:52;;;;;;;;;;;;;;;;;;5086442;28;19923;-79
2022/04/12 05:38:17;;;;;;;;;;;;;;;;;;5084243;28;19920;-78
2022/04/12 05:40:43;;;;;;;;;;;;;;;;;;5086571;28;19916;-78
2022/04/12 05:43:08;;;;;;;;;;;;;;;;;;5083528;28;19963;-78
2022/04/12 05:45:34;;;;;;;;;;;;;;;;;;5102183;28;19992;-78
2022/04/12 05:48:00;;;;;;;;;;;;;;;;;;5104161;28;19920;-78
2022/04/12 05:50:26;;;;;;;;;;;;;;;;;;5101585;28;19923;-78
2022/04/12 05:52:52;;;;;;;;;;;;;;;;;;5104022;28;19931;-78
2022/04/12 05:55:19;;;;;;;;;;;;;;;;;;5103076;28;19946;-77
2022/04/12 05:57:48;;;;;;;;;;;;;;;;;;5101572;28;19922;-78
2022/04/12 06:00:13;;;;;;;;;;;;;;;;;;5095889;28;19980;-76
2022/04/12 06:02:39;;;;;;;;;;;;;;;;;;5107879;28;19983;-79
2022/04/12 06:05:09;;;;;;;;;;;;;;;;;;5106602;28;19916;-79
2022/04/12 06:07:35;;;;;;;;;;;;;;;;;;5088253;28;19916;-79
2022/04/12 06:10:00;;;;;;;;;;;;;;;;;;5104094;28;19923;-78
2022/04/12 06:12:26;;;;;;;;;;;;;;;;;;5102197;28;19967;-77
2022/04/12 06:14:51;;;;;;;;;;;;;;;;;;5098016;28;20389;-77
2022/04/12 06:17:17;;;;;;;;;;;;;;;;;;5096727;28;19916;-77
2022/04/12 06:19:42;;;;;;;;;;;;;;;;;;5096655;28;19916;-77
2022/04/12 06:22:07;;;;;;;;;;;;;;;;;;5097634;28;19923;-78
2022/04/12 06:24:33;;;;;;;;;;;;;;;;;;5100240;28;19983;-77
2022/04/12 06:26:58;;;;;;;;;;;;;;;;;;5101603;28;19916;-78
2022/04/12 06:29:23;;;;;;;;;;;;;;;;;;5102196;28;19922;-80
2022/04/12 06:31:49;;;;;;;;;;;;;;;;;;5106512;28;19930;-79
2022/04/12 06:34:14;;;;;;;;;;;;;;;;;;5098355;28;19916;-77
2022/04/12 06:36:39;;;;;;;;;;;;;;;;;;5096179;28;19916;-77
2022/04/12 06:39:05;;;;;;;;;;;;;;;;;;5097605;28;19955;-77
2022/04/12 06:41:30;;;;;;;;;;;;;;;;;;5098032;28;19972;-78
2022/04/12 06:43:55;;;;;;;;;;;;;;;;;;5101830;28;19916;-81
2022/04/12 06:46:20;;;;;;;;;;;;;;;;;;5102957;28;19920;-78
2022/04/12 06:48:46;;;;;;;;;;;;;;;;;;5101536;28;19916;-81
2022/04/12 06:51:11;;;;;;;;;;;;;;;;;;5099629;28;19965;-78
2022/04/12 06:53:36;;;;;;;;;;;;;;;;;;5099714;28;19920;-79
2022/04/12 06:56:02;;;;;;;;;;;;;;;;;;5099014;28;19920;-79
2022/04/12 06:58:27;;;;;;;;;;;;;;;;;;5103815;28;19916;-79
2022/04/12 07:00:53;;;;;;;;;;;;;;;;;;5102091;28;19915;-79
2022/04/12 07:03:18;;;;;;;;;;;;;;;;;;5081882;28;19927;-78
2022/04/12 07:05:45;;;;;;;;;;;;;;;;;;5104010;28;19929;-78
2022/04/12 07:08:12;;;;;;;;;;;;;;;;;;5101881;28;19923;-78
2022/04/12 07:10:37;;;;;;;;;;;;;;;;;;5103545;28;20274;-78
2022/04/12 07:13:02;;;;;;;;;;;;;;;;;;5103827;28;19932;-78
2022/04/12 07:15:28;;;;;;;;;;;;;;;;;;5102648;28;19919;-78
2022/04/12 07:17:53;;;;;;;;;;;;;;;;;;5099644;28;19916;-78
2022/04/12 07:20:20;;;;;;;;;;;;;;;;;;5102000;28;19920;-78
2022/04/12 07:22:45;;;;;;;;;;;;;;;;;;5100569;28;19952;-78
2022/04/12 07:25:11;;;;;;;;;;;;;;;;;;5101349;28;19916;-78
2022/04/12 07:27:37;;;;;;;;;;;;;;;;;;5097494;28;20254;-76
2022/04/12 07:30:04;;;;;;;;;;;;;;;;;;5094644;28;19916;-77
2022/04/12 07:32:29;;;;;;;;;;;;;;;;;;5095162;28;20344;-77
2022/04/12 07:34:55;;;;;;;;;;;;;;;;;;5094167;28;20011;-77
2022/04/12 07:37:20;;;;;;;;;;;;;;;;;;5094127;28;20277;-75
2022/04/12 07:39:45;;;;;;;;;;;;;;;;;;5093356;28;19916;-77
2022/04/12 07:42:10;;;;;;;;;;;;;;;;;;5096614;28;19968;-82
2022/04/12 07:44:36;;;;;;;;;;;;;;;;;;5097821;28;19916;-77
2022/04/12 07:47:01;;;;;;;;;;;;;;;;;;5100238;28;19916;-77
2022/04/12 07:49:28;;;;;;;;;;;;;;;;;;5116125;28;19916;-77
2022/04/12 07:51:53;;;;;;;;;;;;;;;;;;5115866;28;19920;-77
2022/04/12 07:54:18;;;;;;;;;;;;;;;;;;5115503;28;20268;-79
2022/04/12 07:56:44;;;;;;;;;;;;;;;;;;5113572;28;19927;-78
2022/04/12 07:59:10;;;;;;;;;;;;;;;;;;5118979;28;19915;-86
2022/04/12 08:01:36;;;;;;;;;;;;;;;;;;5120440;28;19916;-82
2022/04/12 08:04:01;;;;;;;;;;;;;;;;;;5122985;28;19915;-80
2022/04/12 08:06:26;;;;;;;;;;;;;;;;;;5117674;28;19915;-80
2022/04/12 08:08:52;;;;;;;;;;;;;;;;;;5117228;28;19916;-81
2022/04/12 08:11:17;;;;;;;;;;;;;;;;;;5118644;28;19916;-80
2022/04/12 08:13:43;;;;;;;;;;;;;;;;;;5112833;28;19927;-84
2022/04/12 08:16:09;;;;;;;;;;;;;;;;;;5096606;28;20620;-81
2022/04/12 08:18:35;;;;;;;;;;;;;;;;;;5097259;28;19959;-81
2022/04/12 08:21:00;;;;;;;;;;;;;;;;;;5095648;28;19912;-88
2022/04/12 08:23:28;;;;;;;;;;;;;;;;;;5078885;28;19922;-87
2022/04/12 08:25:53;;;;;;;;;;;;;;;;;;5095658;28;19916;-83
2022/04/12 08:28:19;;;;;;;;;;;;;;;;;;5098448;28;19927;-86
2022/04/12 08:30:44;;;;;;;;;;;;;;;;;;5110659;28;20438;-80
2022/04/12 08:33:09;;;;;;;;;;;;;;;;;;5102820;28;19920;-81
2022/04/12 08:35:35;;;;;;;;;;;;;;;;;;5122531;28;20396;-82
2022/04/12 08:38:00;;;;;;;;;;;;;;;;;;5121858;28;19923;-80
2022/04/12 08:40:25;;;;;;;;;;;;;;;;;;5121530;28;19969;-80
2022/04/12 08:42:52;;;;;;;;;;;;;;;;;;5120869;28;19919;-80
2022/04/12 08:45:17;;;;;;;;;;;;;;;;;;5107724;28;20309;-80
2022/04/12 08:47:43;;;;;;;;;;;;;;;;;;5099729;28;19930;-82
2022/04/12 08:50:09;;;;;;;;;;;;;;;;;;5082673;28;20390;-80
2022/04/12 08:52:37;;;;;;;;;;;;;;;;;;5103426;28;19927;-84
2022/04/12 08:55:03;;;;;;;;;;;;;;;;;;5101192;28;19916;-80
2022/04/12 08:57:29;;;;;;;;;;;;;;;;;;5100916;28;19916;-81
2022/04/12 08:59:54;;;;;;;;;;;;;;;;;;5099501;28;20377;-80
2022/04/12 09:02:20;;;;;;;;;;;;;;;;;;5099259;28;19915;-80
2022/04/12 09:04:45;;;;;;;;;;;;;;;;;;5100310;28;19916;-80
2022/04/12 09:07:11;;;;;;;;;;;;;;;;;;5099558;28;19969;-76
2022/04/12 09:09:37;;;;;;;;;;;;;;;;;;5099217;28;19923;-79
2022/04/12 09:12:06;;;;;;;;;;;;;;;;;;5099082;28;19920;-80
2022/04/12 09:14:46;;;;;;;;;;;;;;;;;;5106570;28;19916;-79
2022/04/12 09:17:18;;;;;;;;;;;;;;;;;;5118869;28;19915;-78
2022/04/12 09:19:43;;;;;;;;;;;;;;;;;;5120298;28;19915;-78
2022/04/12 09:22:18;;;;;;;;;;;;;;;;;;5107719;28;20289;-79
2022/04/12 09:24:50;;;;;;;;;;;;;;;;;;5098326;28;20320;-81
2022/04/12 09:27:16;;;;;;;;;;;;;;;;;;5101121;28;19923;-80
2022/04/12 09:29:49;;;;;;;;;;;;;;;;;;5100492;28;19919;-78
2022/04/12 09:32:15;;;;;;;;;;;;;;;;;;5096886;28;19920;-78
2022/04/12 09:34:44;;;;;;;;;;;;;;;;;;5096100;28;19916;-77
2022/04/12 09:37:25;;;;;;;;;;;;;;;;;;5097687;28;19974;-78
2022/04/12 09:39:57;;;;;;;;;;;;;;;;;;5114879;28;19965;-81
2022/04/12 09:42:41;;;;;;;;;;;;;;;;;;5118406;28;19922;-80
2022/04/12 09:45:07;;;;;;;;;;;;;;;;;;5114399;28;20289;-78
2022/04/12 09:47:33;;;;;;;;;;;;;;;;;;5116805;28;19916;-78
2022/04/12 09:50:01;;;;;;;;;;;;;;;;;;5118837;28;19916;-79
2022/04/12 09:52:27;;;;;;;;;;;;;;;;;;5096703;28;19928;-76
2022/04/12 09:54:53;;;;;;;;;;;;;;;;;;5094555;28;20381;-78
2022/04/12 09:57:19;;;;;;;;;;;;;;;;;;5093778;28;20003;-76
2022/04/12 09:59:44;;;;;;;;;;;;;;;;;;5096568;28;19916;-80
2022/04/12 10:02:11;;;;;;;;;;;;;;;;;;5089441;28;19923;-77
2022/04/12 10:04:37;;;;;;;;;;;;;;;;;;5092279;28;19942;-77
2022/04/12 10:07:04;;;;;;;;;;;;;;;;;;5093640;28;19917;-77
2022/04/12 10:09:30;;;;;;;;;;;;;;;;;;5078398;28;19973;-77
2022/04/12 10:11:55;;;;;;;;;;;;;;;;;;5062443;28;19916;-77
2022/04/12 10:14:21;;;;;;;;;;;;;;;;;;5079663;28;19923;-77
2022/04/12 10:16:47;;;;;;;;;;;;;;;;;;5082182;28;20282;-79
2022/04/12 10:19:13;;;;;;;;;;;;;;;;;;5085665;28;19962;-77
2022/04/12 10:21:38;;;;;;;;;;;;;;;;;;5077845;28;19916;-79
2022/04/12 10:24:04;;;;;;;;;;;;;;;;;;5080960;28;19960;-76
2022/04/12 10:26:29;;;;;;;;;;;;;;;;;;5085878;28;20026;-81
2022/04/12 10:28:59;;;;;;;;;;;;;;;;;;5102901;28;19966;-80
2022/04/12 10:31:25;;;;;;;;;;;;;;;;;;5081904;28;20279;-79
2022/04/12 10:34:02;;;;;;;;;;;;;;;;;;5097650;28;19934;-80
2022/04/12 10:36:46;;;;;;;;;;;;;;;;;;5097266;28;19923;-80
2022/04/12 10:39:12;;;;;;;;;;;;;;;;;;5100281;28;20271;-79
2022/04/12 10:41:42;;;;;;;;;;;;;;;;;;5100569;28;19912;-82
2022/04/12 10:44:18;;;;;;;;;;;;;;;;;;5100388;28;20278;-77
2022/04/12 10:46:48;;;;;;;;;;;;;;;;;;5097580;28;19916;-78
2022/04/12 10:49:17;;;;;;;;;;;;;;;;;;5099094;28;19922;-78
2022/04/12 10:51:43;;;;;;;;;;;;;;;;;;5101706;28;19916;-77
2022/04/12 10:54:26;;;;;;;;;;;;;;;;;;5097728;28;19916;-80
2022/04/12 10:57:12;;;;;;;;;;;;;;;;;;5069009;28;20367;-80
2022/04/12 10:59:39;;;;;;;;;;;;;;;;;;5087734;28;20397;-82
2022/04/12 11:02:10;;;;;;;;;;;;;;;;;;5079172;28;20325;-80
2022/04/12 11:04:35;;;;;;;;;;;;;;;;;;5081079;28;19916;-78
2022/04/12 11:07:01;;;;;;;;;;;;;;;;;;5082944;28;19970;-78
2022/04/12 11:09:27;;;;;;;;;;;;;;;;;;5076836;28;19925;-81
2022/04/12 11:11:52;;;;;;;;;;;;;;;;;;5095928;28;19924;-77
2022/04/12 11:14:37;;;;;;;;;;;;;;;;;;5075373;28;19969;-77
2022/04/12 11:17:02;;;;;;;;;;;;;;;;;;5076240;28;19967;-77
2022/04/12 11:19:41;;;;;;;;;;;;;;;;;;5072805;28;19916;-79
2022/04/12 11:22:11;;;;;;;;;;;;;;;;;;5089631;28;20305;-82
2022/04/12 11:24:36;;;;;;;;;;;;;;;;;;5085017;28;19917;-82
2022/04/12 11:27:09;;;;;;;;;;;;;;;;;;5087725;28;20049;-80
2022/04/12 11:29:35;;;;;;;;;;;;;;;;;;5094155;28;19923;-78
2022/04/12 11:32:00;;;;;;;;;;;;;;;;;;5097827;28;20010;-80
2022/04/12 11:34:27;;;;;;;;;;;;;;;;;;5086146;28;19923;-81
2022/04/12 11:37:07;;;;;;;;;;;;;;;;;;5073144;28;19923;-83
2022/04/12 11:39:35;;;;;;;;;;;;;;;;;;5093038;28;19939;-78
2022/04/12 11:42:02;;;;;;;;;;;;;;;;;;5072716;28;19916;-80
2022/04/12 11:44:27;;;;;;;;;;;;;;;;;;5079780;28;19916;-80
2022/04/12 11:47:06;;;;;;;;;;;;;;;;;;5079531;28;20370;-84
2022/04/12 11:49:33;;;;;;;;;;;;;;;;;;5079237;28;19924;-82
2022/04/12 11:52:01;;;;;;;;;;;;;;;;;;5076583;28;19920;-84
2022/04/12 11:54:30;;;;;;;;;;;;;;;;;;5078632;28;19923;-84
2022/04/12 11:57:00;;;;;;;;;;;;;;;;;;5060030;28;19927;-86
2022/04/12 11:59:26;;;;;;;;;;;;;;;;;;5076649;28;20159;-78
2022/04/12 12:01:53;;;;;;;;;;;;;;;;;;5096885;28;20367;-81
2022/04/12 12:04:19;;;;;;;;;;;;;;;;;;5096231;28;20022;-80
2022/04/12 12:07:07;;;;;;;;;;;;;;;;;;5097708;28;19923;-80
2022/04/12 12:09:34;;;;;;;;;;;;;;;;;;5107146;27;19983;-80
2022/04/12 12:12:09;;;;;;;;;;;;;;;;;;5108028;28;19924;-80
2022/04/12 12:14:35;;;;;;;;;;;;;;;;;;5109709;28;19962;-80
2022/04/12 12:17:08;;;;;;;;;;;;;;;;;;5112564;28;20394;-80
2022/04/12 12:19:37;;;;;;;;;;;;;;;;;;5115682;28;19955;-80
2022/04/12 12:22:03;;;;;;;;;;;;;;;;;;5114709;28;20022;-80
2022/04/12 12:24:30;;;;;;;;;;;;;;;;;;5114345;28;20361;-80
2022/04/12 12:26:56;;;;;;;;;;;;;;;;;;5113226;28;20003;-80
2022/04/12 12:29:22;;;;;;;;;;;;;;;;;;5111513;28;19912;-80
2022/04/12 12:31:47;;;;;;;;;;;;;;;;;;5110712;28;20411;-79
2022/04/12 12:34:26;;;;;;;;;;;;;;;;;;5107330;28;19916;-79
2022/04/12 12:36:51;;;;;;;;;;;;;;;;;;5094104;28;19993;-79
2022/04/12 12:39:20;;;;;;;;;;;;;;;;;;5092182;28;20382;-79
2022/04/12 12:41:45;;;;;;;;;;;;;;;;;;5090028;28;19969;-78
2022/04/12 12:44:10;;;;;;;;;;;;;;;;;;5081412;28;19917;-77
2022/04/12 12:46:37;;;;;;;;;;;;;;;;;;5079772;28;19916;-76
2022/04/12 12:49:13;;;;;;;;;;;;;;;;;;5078967;28;19948;-77
2022/04/12 12:51:39;;;;;;;;;;;;;;;;;;5079424;28;20017;-77
2022/04/12 12:54:05;;;;;;;;;;;;;;;;;;5098374;28;19920;-76
2022/04/12 12:56:33;;;;;;;;;;;;;;;;;;5098811;28;20342;-75
2022/04/12 12:59:14;;;;;;;;;;;;;;;;;;5100303;28;19916;-76
2022/04/12 13:01:50;;;;;;;;;;;;;;;;;;5100305;28;20024;-77
2022/04/12 13:04:29;;;;;;;;;;;;;;;;;;5100042;28;19924;-76
2022/04/12 13:07:01;;;;;;;;;;;;;;;;;;5100092;28;20024;-76
2022/04/12 13:09:26;;;;;;;;;;;;;;;;;;5098740;28;19923;-76
2022/04/12 13:11:51;;;;;;;;;;;;;;;;;;5098468;28;20261;-76
2022/04/12 13:14:17;;;;;;;;;;;;;;;;;;5100130;28;20005;-76
2022/04/12 13:16:42;;;;;;;;;;;;;;;;;;5099844;28;20251;-76
2022/04/12 13:19:07;;;;;;;;;;;;;;;;;;5097381;28;19916;-76
2022/04/12 13:21:34;;;;;;;;;;;;;;;;;;5095753;28;19924;-76
2022/04/12 13:23:59;;;;;;;;;;;;;;;;;;5096794;28;19920;-76
2022/04/12 13:26:25;;;;;;;;;;;;;;;;;;5096668;28;20427;-76
2022/04/12 13:28:50;;;;;;;;;;;;;;;;;;5096426;28;19942;-76
2022/04/12 13:31:15;;;;;;;;;;;;;;;;;;5097532;28;19912;-77
2022/04/12 13:33:40;;;;;;;;;;;;;;;;;;5096834;28;19920;-77
2022/04/12 13:36:06;;;;;;;;;;;;;;;;;;5096954;28;19916;-77
2022/04/12 13:38:31;;;;;;;;;;;;;;;;;;5096819;28;20305;-77
2022/04/12 13:40:56;;;;;;;;;;;;;;;;;;5096765;28;19920;-77
2022/04/12 13:43:22;;;;;;;;;;;;;;;;;;5096140;28;19922;-77
2022/04/12 13:45:47;;;;;;;;;;;;;;;;;;5096416;28;19923;-77
2022/04/12 13:48:13;;;;;;;;;;;;;;;;;;5096433;28;19930;-77
2022/04/12 13:50:38;;;;;;;;;;;;;;;;;;5096333;28;20364;-77
2022/04/12 13:53:04;;;;;;;;;;;;;;;;;;5095883;28;19920;-77
2022/04/12 13:55:29;;;;;;;;;;;;;;;;;;5096413;28;19928;-77
2022/04/12 13:57:55;;;;;;;;;;;;;;;;;;5095359;28;19942;-77
2022/04/12 14:00:23;;;;;;;;;;;;;;;;;;5096872;28;19980;-77
2022/04/12 14:02:49;;;;;;;;;;;;;;;;;;5096398;28;20012;-77
2022/04/12 14:05:15;;;;;;;;;;;;;;;;;;5096304;28;19959;-77
2022/04/12 14:07:42;;;;;;;;;;;;;;;;;;5096376;28;19916;-77
2022/04/12 14:10:08;;;;;;;;;;;;;;;;;;5094929;28;19923;-78
2022/04/12 14:12:33;;;;;;;;;;;;;;;;;;5095150;28;19920;-78
2022/04/12 14:14:59;;;;;;;;;;;;;;;;;;5095391;28;19920;-77
2022/04/12 14:17:24;;;;;;;;;;;;;;;;;;5096419;28;19916;-77
2022/04/12 14:19:49;;;;;;;;;;;;;;;;;;5096005;28;19961;-77
2022/04/12 14:22:14;;;;;;;;;;;;;;;;;;5095592;28;19923;-77
2022/04/12 14:24:40;;;;;;;;;;;;;;;;;;5095827;28;20009;-76
2022/04/12 14:27:05;;;;;;;;;;;;;;;;;;5096402;28;19916;-77
2022/04/12 14:29:31;;;;;;;;;;;;;;;;;;5095652;28;19963;-77
2022/04/12 14:31:56;;;;;;;;;;;;;;;;;;5096096;28;19916;-77
2022/04/12 14:34:21;;;;;;;;;;;;;;;;;;5094525;28;19916;-77
2022/04/12 14:36:46;;;;;;;;;;;;;;;;;;5095745;28;19916;-77
2022/04/12 14:39:12;;;;;;;;;;;;;;;;;;5095399;28;19962;-76
2022/04/12 14:41:37;;;;;;;;;;;;;;;;;;5095385;28;19938;-77
2022/04/12 14:44:03;;;;;;;;;;;;;;;;;;5094657;28;19923;-77
2022/04/12 14:46:29;;;;;;;;;;;;;;;;;;5095533;28;19916;-77
2022/04/12 14:48:54;;;;;;;;;;;;;;;;;;5095719;28;19961;-77
2022/04/12 14:51:19;;;;;;;;;;;;;;;;;;5094284;28;19920;-77
2022/04/12 14:53:44;;;;;;;;;;;;;;;;;;5095460;28;19920;-77
2022/04/12 14:56:10;;;;;;;;;;;;;;;;;;5095409;28;19920;-77
2022/04/12 14:58:37;;;;;;;;;;;;;;;;;;5095273;28;19916;-77
2022/04/12 15:01:03;;;;;;;;;;;;;;;;;;5095618;28;19938;-77
2022/04/12 15:03:28;;;;;;;;;;;;;;;;;;5095067;28;20010;-77
2022/04/12 15:05:54;;;;;;;;;;;;;;;;;;5093583;28;20398;-77
2022/04/12 15:08:19;;;;;;;;;;;;;;;;;;5094975;28;19920;-77
2022/04/12 15:10:44;;;;;;;;;;;;;;;;;;5094771;28;20499;-77
2022/04/12 15:13:10;;;;;;;;;;;;;;;;;;5094866;28;19920;-77
2022/04/12 15:15:36;;;;;;;;;;;;;;;;;;5094933;28;19916;-77
2022/04/12 15:18:02;;;;;;;;;;;;;;;;;;5094588;28;19981;-77
2022/04/12 15:20:28;;;;;;;;;;;;;;;;;;5094675;28;19919;-76
2022/04/12 15:22:53;;;;;;;;;;;;;;;;;;5093658;28;20297;-77
2022/04/12 15:25:19;;;;;;;;;;;;;;;;;;5094783;28;19916;-77
2022/04/12 15:27:45;;;;;;;;;;;;;;;;;;5094797;28;19916;-77
2022/04/12 15:30:10;;;;;;;;;;;;;;;;;;5094397;28;19923;-77
2022/04/12 15:32:39;;;;;;;;;;;;;;;;;;5094011;28;19920;-76
2022/04/12 15:35:05;;;;;;;;;;;;;;;;;;5093718;28;20356;-77
2022/04/12 15:37:31;;;;;;;;;;;;;;;;;;5095633;28;20382;-77
2022/04/12 15:39:56;;;;;;;;;;;;;;;;;;5095347;28;19916;-77
2022/04/12 15:42:21;;;;;;;;;;;;;;;;;;5092884;28;19916;-77
2022/04/12 15:44:47;;;;;;;;;;;;;;;;;;5093649;28;19916;-77
2022/04/12 15:47:12;;;;;;;;;;;;;;;;;;5095146;28;20328;-77
2022/04/12 15:49:37;;;;;;;;;;;;;;;;;;5094086;28;19922;-77
2022/04/12 15:52:03;;;;;;;;;;;;;;;;;;5094713;28;20378;-77
2022/04/12 15:54:28;;;;;;;;;;;;;;;;;;5093353;28;19937;-76
2022/04/12 15:56:54;;;;;;;;;;;;;;;;;;5094074;28;19920;-76
2022/04/12 15:59:19;;;;;;;;;;;;;;;;;;5092896;28;19919;-76
2022/04/12 16:01:44;;;;;;;;;;;;;;;;;;5093904;28;19916;-76
2022/04/12 16:04:10;;;;;;;;;;;;;;;;;;5092836;28;19961;-76
2022/04/12 16:06:36;;;;;;;;;;;;;;;;;;5093248;28;19916;-76
2022/04/12 16:09:02;;;;;;;;;;;;;;;;;;5093766;28;20010;-75
2022/04/12 16:11:27;;;;;;;;;;;;;;;;;;5092197;28;19916;-75
2022/04/12 16:13:53;;;;;;;;;;;;;;;;;;5082703;28;19920;-75
2022/04/12 16:16:19;;;;;;;;;;;;;;;;;;5092639;28;19916;-76
2022/04/12 16:18:44;;;;;;;;;;;;;;;;;;5093685;28;20338;-75
2022/04/12 16:21:12;;;;;;;;;;;;;;;;;;5093497;28;19920;-77
2022/04/12 16:23:37;;;;;;;;;;;;;;;;;;5093602;28;19970;-76
2022/04/12 16:26:02;;;;;;;;;;;;;;;;;;5093676;28;19921;-77
2022/04/12 16:28:28;;;;;;;;;;;;;;;;;;5093693;28;19923;-76
2022/04/12 16:30:53;;;;;;;;;;;;;;;;;;5093614;28;19951;-76
2022/04/12 16:33:19;;;;;;;;;;;;;;;;;;5092813;28;20366;-75
2022/04/12 16:35:44;;;;;;;;;;;;;;;;;;5093278;28;19956;-76
2022/04/12 16:38:10;;;;;;;;;;;;;;;;;;5093630;28;20426;-79
2022/04/12 16:40:36;;;;;;;;;;;;;;;;;;5097019;28;19916;-77
2022/04/12 16:43:02;;;;;;;;;;;;;;;;;;5093667;28;19922;-77